Time;durP1;ratioP1;P1;durP2;ratioP2;P2;SDS_P1;SDS_P2;PMS_P1;PMS_P2;Temp;Humidity;BMP_temperature;BMP_pressure;BME280_temperature;BME280_humidity;BME280_pressure;Samples;Min_cycle;Max_cycle;Signal;HPM_P1;HPM_P2
2022/07/20 00:00:26;;;;;;;17.63;10.38;;;;;;;26.71;50.30;100926.25;5035082;28;20054;-64
2022/07/20 00:02:54;;;;;;;19.95;10.45;;;;;;;26.83;49.99;100922.94;5029650;28;20492;-65
2022/07/20 00:05:21;;;;;;;20.13;10.10;;;;;;;26.60;50.14;100931.19;5050058;28;20052;-66
2022/07/20 00:07:48;;;;;;;18.20;10.52;;;;;;;26.73;50.22;100942.81;5039901;28;20059;-65
2022/07/20 00:13:01;;;;;;;17.65;11.00;;;;;;;26.80;49.75;100935.06;5027015;28;20677;-64
2022/07/20 00:15:29;;;;;;;22.15;9.20;;;;;;;26.82;50.35;100941.09;5022132;28;20042;-64
2022/07/20 00:17:56;;;;;;;16.75;9.75;;;;;;;26.77;51.02;100974.66;5022030;28;20060;-65
2022/07/20 00:20:24;;;;;;;23.33;10.25;;;;;;;26.31;53.04;101018.16;5037826;28;20133;-65
2022/07/20 00:22:51;;;;;;;17.10;9.88;;;;;;;26.59;54.00;101051.88;5034777;28;20057;-64
2022/07/20 00:25:19;;;;;;;18.25;10.10;;;;;;;26.78;53.23;101066.75;5020595;28;20057;-67
2022/07/20 00:27:46;;;;;;;20.73;10.80;;;;;;;26.78;52.91;101095.78;5025148;28;20053;-68
2022/07/20 00:30:13;;;;;;;20.45;9.88;;;;;;;26.55;53.24;101110.44;5028877;28;20557;-67
2022/07/20 00:32:42;;;;;;;17.58;10.38;;;;;;;26.70;53.30;101121.69;5029764;28;20065;-64
2022/07/20 00:35:12;;;;;;;22.73;10.45;;;;;;;26.77;53.17;101113.97;5035955;28;20499;-63
2022/07/20 00:37:40;;;;;;;19.45;9.93;;;;;;;27.10;52.44;101104.84;5029329;28;20059;-64
2022/07/20 00:40:09;;;;;;;19.00;10.73;;;;;;;26.71;52.82;101081.72;5037043;28;20053;-63
2022/07/20 00:42:37;;;;;;;21.25;10.15;;;;;;;26.37;54.58;101061.72;5045449;28;20069;-64
2022/07/20 00:45:07;;;;;;;16.08;9.55;;;;;;;26.25;55.05;101028.31;5034365;28;20064;-64
2022/07/20 00:47:34;;;;;;;19.88;10.73;;;;;;;25.82;56.50;101001.44;5020571;28;20436;-65
2022/07/20 00:50:02;;;;;;;19.80;10.88;;;;;;;25.86;56.92;100993.78;5047769;28;20145;-63
2022/07/20 00:52:30;;;;;;;17.35;10.57;;;;;;;25.22;59.51;100998.81;5028408;28;20045;-64
2022/07/20 00:54:57;;;;;;;21.42;11.43;;;;;;;25.04;61.44;100991.56;5027983;28;20053;-64
2022/07/20 00:57:24;;;;;;;17.23;10.43;;;;;;;25.07;60.44;100988.75;5024491;28;20068;-65
2022/07/20 00:59:51;;;;;;;21.17;11.27;;;;;;;25.45;60.31;100984.28;5047041;28;20060;-64
2022/07/20 01:02:19;;;;;;;19.05;11.82;;;;;;;25.05;61.16;100965.00;5062951;28;20046;-65
2022/07/20 01:04:46;;;;;;;21.45;11.70;;;;;;;24.70;62.33;100973.50;5032303;28;20060;-64
2022/07/20 01:07:13;;;;;;;18.20;11.75;;;;;;;24.61;63.22;100959.78;5034326;28;20524;-64
2022/07/20 01:09:43;;;;;;;21.13;12.20;;;;;;;24.38;65.16;100939.66;5031052;28;20489;-64
2022/07/20 01:12:10;;;;;;;20.92;11.95;;;;;;;24.31;65.41;100923.56;5021907;28;20076;-64
2022/07/20 01:14:38;;;;;;;20.95;12.60;;;;;;;23.96;67.40;100948.81;5022378;28;20050;-63
2022/07/20 01:17:06;;;;;;;23.15;13.10;;;;;;;23.92;68.08;100936.72;5042563;28;20057;-64
2022/07/20 01:19:33;;;;;;;22.05;13.40;;;;;;;23.99;68.90;100945.22;5025019;28;20500;-64
2022/07/20 01:22:01;;;;;;;21.27;13.02;;;;;;;24.36;67.59;100945.69;5031831;28;20049;-64
2022/07/20 01:24:28;;;;;;;24.75;14.98;;;;;;;24.34;67.90;100959.34;5034317;28;20050;-64
2022/07/20 01:26:56;;;;;;;24.10;14.45;;;;;;;24.45;68.19;100973.44;5025941;28;20225;-64
2022/07/20 01:29:23;;;;;;;24.27;14.23;;;;;;;24.71;67.27;100959.00;5035746;28;20045;-65
2022/07/20 01:31:50;;;;;;;22.65;14.27;;;;;;;25.05;65.95;100951.72;5024100;28;20080;-65
2022/07/20 01:34:19;;;;;;;29.98;17.02;;;;;;;24.65;68.32;100946.50;5032440;28;20053;-64
2022/07/20 01:36:47;;;;;;;30.35;18.02;;;;;;;24.30;70.87;100936.00;5023530;28;20045;-64
2022/07/20 01:39:14;;;;;;;32.10;18.45;;;;;;;24.34;71.41;100922.75;5030060;28;20069;-66
2022/07/20 01:41:43;;;;;;;25.65;19.70;;;;;;;24.24;72.56;100934.00;5030964;28;20052;-65
2022/07/20 01:44:10;;;;;;;34.08;22.65;;;;;;;24.18;73.03;100950.47;5035480;28;20747;-66
2022/07/20 01:46:37;;;;;;;28.50;21.77;;;;;;;24.15;73.63;100964.56;5032893;28;20523;-64
2022/07/20 01:49:06;;;;;;;28.10;21.25;;;;;;;24.30;73.69;100958.53;5045390;28;20054;-63
2022/07/20 01:51:33;;;;;;;32.90;22.25;;;;;;;24.29;74.03;100958.94;5022431;28;20057;-64
2022/07/20 01:54:01;;;;;;;28.80;22.88;;;;;;;24.10;75.29;100962.13;5030145;28;20064;-64
2022/07/20 01:56:28;;;;;;;30.48;22.27;;;;;;;24.16;75.17;100986.69;5025305;28;20053;-64
2022/07/20 01:58:56;;;;;;;32.15;25.13;;;;;;;24.05;75.48;101002.75;5031997;28;20634;-64
2022/07/20 02:01:25;;;;;;;29.37;22.87;;;;;;;24.13;75.75;101032.50;5024557;28;20057;-64
2022/07/20 02:03:52;;;;;;;28.10;22.05;;;;;;;24.66;73.67;101055.16;5030289;28;20054;-64
2022/07/20 02:06:20;;;;;;;33.63;23.95;;;;;;;24.78;73.57;101070.88;5062484;28;20049;-64
2022/07/20 02:08:47;;;;;;;28.92;23.90;;;;;;;25.01;72.10;101074.94;5029324;28;20053;-64
2022/07/20 02:11:16;;;;;;;29.60;25.20;;;;;;;24.83;72.37;101040.31;5033238;28;20049;-66
2022/07/20 02:13:43;;;;;;;32.92;25.33;;;;;;;24.49;73.96;101022.97;5017242;28;20080;-66
2022/07/20 02:16:16;;;;;;;32.55;26.55;;;;;;;24.18;75.53;101029.31;5000390;28;20060;-66
2022/07/20 02:18:50;;;;;;;37.30;27.50;;;;;;;24.32;75.08;101049.06;5059263;28;20057;-64
2022/07/20 02:21:20;;;;;;;42.13;29.90;;;;;;;24.21;73.70;101042.59;5034284;28;20053;-64
2022/07/20 02:23:49;;;;;;;36.50;28.87;;;;;;;23.95;75.62;101048.50;5035431;28;20057;-64
2022/07/20 02:26:17;;;;;;;35.40;29.08;;;;;;;24.17;74.75;101055.84;5031109;28;20054;-64
2022/07/20 02:28:44;;;;;;;41.10;30.15;;;;;;;24.11;74.94;101051.81;5024664;28;20053;-63
2022/07/20 02:31:12;;;;;;;39.65;30.00;;;;;;;23.74;76.41;101070.91;5033112;28;20400;-65
2022/07/20 02:33:40;;;;;;;38.33;28.00;;;;;;;23.97;76.29;101087.50;5049977;28;20064;-65
2022/07/20 02:36:08;;;;;;;37.60;29.35;;;;;;;24.20;74.27;101088.84;5020523;28;20053;-65
2022/07/20 02:38:35;;;;;;;37.70;28.27;;;;;;;24.21;74.40;101086.84;5024009;28;20056;-65
2022/07/20 02:41:03;;;;;;;44.65;30.00;;;;;;;24.17;74.59;101075.56;5028190;28;20427;-63
2022/07/20 02:43:30;;;;;;;42.65;30.20;;;;;;;23.65;76.05;101090.16;5029421;28;20060;-65
2022/07/20 02:45:58;;;;;;;39.13;30.52;;;;;;;23.47;76.16;101099.69;5033806;28;20049;-64
2022/07/20 02:48:25;;;;;;;41.55;30.17;;;;;;;23.53;76.29;101109.34;5034597;28;20767;-64
2022/07/20 02:50:53;;;;;;;40.00;31.52;;;;;;;23.56;76.37;101105.75;5028265;28;20058;-64
2022/07/20 02:53:20;;;;;;;44.30;30.95;;;;;;;23.54;75.27;101114.56;5030312;28;20057;-64
2022/07/20 02:55:47;;;;;;;45.10;31.33;;;;;;;23.46;75.68;101115.75;5026603;28;20057;-64
2022/07/20 02:58:15;;;;;;;40.33;30.35;;;;;;;23.72;75.15;101132.38;5018314;28;20050;-64
2022/07/20 03:00:42;;;;;;;40.22;28.90;;;;;;;24.06;74.31;101155.53;5027675;28;20053;-65
2022/07/20 03:03:10;;;;;;;37.95;29.98;;;;;;;24.24;73.65;101174.13;5023307;28;20054;-64
2022/07/20 03:05:38;;;;;;;37.53;28.25;;;;;;;24.45;72.74;101179.84;5036322;28;20053;-64
2022/07/20 03:08:07;;;;;;;40.13;28.77;;;;;;;24.59;73.18;101192.38;5027794;28;20053;-64
2022/07/20 03:10:35;;;;;;;34.85;29.23;;;;;;;24.56;73.15;101196.81;5026046;28;20053;-64
2022/07/20 03:13:02;;;;;;;34.88;27.83;;;;;;;24.89;71.96;101199.34;5019666;28;20054;-64
2022/07/20 03:15:30;;;;;;;32.47;27.42;;;;;;;25.25;70.41;101194.56;5029494;28;20050;-64
2022/07/20 03:18:00;;;;;;;34.42;27.33;;;;;;;25.20;70.84;101209.06;5026797;28;20045;-64
2022/07/20 03:20:29;;;;;;;33.67;26.88;;;;;;;24.89;71.83;101201.34;5028319;28;20042;-64
2022/07/20 03:22:56;;;;;;;37.92;26.38;;;;;;;25.14;71.08;101190.94;5021114;28;20066;-64
2022/07/20 03:25:25;;;;;;;33.53;26.48;;;;;;;25.32;70.25;101175.66;5020110;28;20057;-65
2022/07/20 03:27:54;;;;;;;37.90;25.95;;;;;;;25.34;69.85;101178.88;5045079;28;20064;-64
2022/07/20 03:30:22;;;;;;;36.83;26.48;;;;;;;25.32;70.05;101172.84;5019245;28;20050;-63
2022/07/20 03:32:49;;;;;;;36.67;26.88;;;;;;;25.14;70.79;101176.84;5009050;28;20053;-66
2022/07/20 03:35:17;;;;;;;36.80;26.45;;;;;;;25.15;70.51;101170.00;5025349;28;20048;-64
2022/07/20 03:37:45;;;;;;;35.45;25.38;;;;;;;25.22;70.33;101178.47;5021328;28;20053;-64
2022/07/20 03:40:12;;;;;;;34.22;25.55;;;;;;;25.20;69.92;101178.88;5022224;28;20533;-66
2022/07/20 03:42:40;;;;;;;31.00;24.10;;;;;;;25.25;69.20;101172.81;5030729;28;20546;-64
2022/07/20 03:45:08;;;;;;;29.48;22.55;;;;;;;25.03;68.58;101184.47;5033964;28;20054;-64
2022/07/20 03:47:35;;;;;;;38.33;23.48;;;;;;;25.03;67.87;101196.56;5030869;28;20052;-63
2022/07/20 03:50:03;;;;;;;29.73;21.75;;;;;;;25.05;68.30;101196.16;5047888;28;20054;-64
2022/07/20 03:52:30;;;;;;;36.40;21.48;;;;;;;25.02;68.76;101200.56;5030309;28;20058;-66
2022/07/20 03:54:58;;;;;;;30.38;21.15;;;;;;;25.13;68.73;101201.41;5031667;28;20053;-64
2022/07/20 03:57:26;;;;;;;29.52;22.38;;;;;;;24.75;70.62;101229.50;5027689;28;20053;-65
2022/07/20 03:59:53;;;;;;;31.40;21.58;;;;;;;24.93;70.43;101250.09;5033110;28;20420;-65
2022/07/20 04:02:20;;;;;;;30.33;20.02;;;;;;;24.94;70.29;101265.78;5025057;28;20052;-65
2022/07/20 04:04:48;;;;;;;24.08;17.30;;;;;;;25.00;67.90;101264.22;5028450;28;20441;-64
2022/07/20 04:07:16;;;;;;;22.13;15.90;;;;;;;24.76;67.77;101259.31;5024462;28;20060;-64
2022/07/20 04:09:43;;;;;;;22.35;15.60;;;;;;;24.60;67.76;101234.22;5026883;28;20046;-66
2022/07/20 04:12:15;;;;;;;20.90;15.07;;;;;;;24.35;68.14;101231.31;5023098;28;20049;-66
2022/07/20 04:14:43;;;;;;;20.60;15.02;;;;;;;24.30;68.63;101223.22;5022149;28;20078;-64
2022/07/20 04:17:10;;;;;;;24.38;14.65;;;;;;;24.21;68.64;101211.53;5028819;28;20068;-65
2022/07/20 04:19:38;;;;;;;18.27;14.85;;;;;;;24.07;68.28;101213.44;5034729;28;20049;-67
2022/07/20 04:22:05;;;;;;;24.08;14.65;;;;;;;24.15;67.66;101210.28;5036543;28;20057;-66
2022/07/20 04:24:34;;;;;;;18.60;14.10;;;;;;;24.41;66.94;101192.28;5025659;28;20578;-66
2022/07/20 04:27:01;;;;;;;21.05;13.15;;;;;;;24.27;66.02;101158.44;5032981;28;20054;-64
2022/07/20 04:29:29;;;;;;;20.85;13.02;;;;;;;23.75;64.72;101168.16;5026669;28;20508;-64
2022/07/20 04:31:56;;;;;;;19.40;12.70;;;;;;;23.39;66.61;101183.16;5029829;28;20060;-66
2022/07/20 04:34:24;;;;;;;21.40;13.73;;;;;;;23.30;68.31;101174.25;5026885;28;20149;-63
2022/07/20 04:36:51;;;;;;;19.25;13.13;;;;;;;23.82;67.29;101164.59;5037262;28;20053;-63
2022/07/20 04:39:19;;;;;;;20.70;11.25;;;;;;;23.89;66.21;101140.13;5035014;28;20057;-64
2022/07/20 04:41:46;;;;;;;15.63;11.18;;;;;;;23.52;66.37;101128.22;5050481;28;20420;-64
2022/07/20 04:44:13;;;;;;;15.77;11.05;;;;;;;23.61;64.77;101120.25;5032949;28;20057;-64
2022/07/20 04:46:41;;;;;;;15.30;10.27;;;;;;;23.38;64.58;101126.13;5034094;28;20401;-65
2022/07/20 04:49:09;;;;;;;16.25;10.80;;;;;;;23.91;63.11;101120.03;5029277;28;20056;-64
2022/07/20 04:51:36;;;;;;;13.88;9.90;;;;;;;23.70;62.95;101140.41;5040690;28;20065;-66
2022/07/20 04:54:05;;;;;;;18.10;10.10;;;;;;;23.98;62.17;101139.75;5024271;28;20473;-65
2022/07/20 04:56:32;;;;;;;15.82;10.07;;;;;;;24.00;62.10;101165.53;5033599;28;20515;-67
2022/07/20 04:59:00;;;;;;;15.32;10.63;;;;;;;23.82;64.60;101212.41;5033061;28;20061;-66
2022/07/20 05:01:27;;;;;;;16.42;10.90;;;;;;;24.10;63.78;101250.06;5026778;28;20045;-66
2022/07/20 05:03:55;;;;;;;12.27;10.15;;;;;;;24.25;64.04;101251.75;5030183;28;20820;-65
2022/07/20 05:06:23;;;;;;;15.55;10.65;;;;;;;24.22;64.94;101246.09;5034380;28;20049;-63
2022/07/20 05:08:50;;;;;;;17.58;10.73;;;;;;;24.19;65.82;101247.69;5025645;28;20045;-64
2022/07/20 05:11:18;;;;;;;18.98;11.52;;;;;;;24.28;65.50;101222.81;5035583;28;20045;-66
2022/07/20 05:13:45;;;;;;;18.63;10.25;;;;;;;24.13;66.28;101232.38;5033463;28;20491;-66
2022/07/20 05:16:13;;;;;;;16.10;10.50;;;;;;;24.25;66.25;101232.03;5026598;28;20052;-66
2022/07/20 05:18:40;;;;;;;13.32;10.50;;;;;;;24.02;67.17;101220.25;5031880;28;20045;-66
2022/07/20 05:21:08;;;;;;;14.57;10.60;;;;;;;23.93;68.06;101221.75;5029051;28;20053;-63
2022/07/20 05:23:35;;;;;;;14.85;11.20;;;;;;;23.83;67.71;101195.16;5022424;28;20068;-64
2022/07/20 05:26:03;;;;;;;14.65;10.60;;;;;;;23.66;66.58;101150.03;5035105;28;20053;-63
2022/07/20 05:28:31;;;;;;;14.75;10.32;;;;;;;23.58;68.03;101137.09;5031135;28;20049;-64
2022/07/20 05:30:58;;;;;;;15.98;10.38;;;;;;;23.43;67.97;101110.91;5030815;28;20056;-64
2022/07/20 05:33:26;;;;;;;17.52;10.50;;;;;;;23.23;69.80;101073.78;5033767;28;20132;-64
2022/07/20 05:35:53;;;;;;;15.65;10.32;;;;;;;23.10;68.15;101116.63;5013820;28;20050;-63
2022/07/20 05:38:21;;;;;;;18.30;10.43;;;;;;;23.14;68.29;101149.19;5024387;28;20046;-63
2022/07/20 05:40:48;;;;;;;17.00;10.77;;;;;;;23.46;68.17;101160.72;5028266;28;20053;-64
2022/07/20 05:43:15;;;;;;;15.25;10.20;;;;;;;23.58;68.14;101182.91;5031336;28;20083;-64
2022/07/20 05:45:43;;;;;;;14.68;10.45;;;;;;;23.64;67.39;101198.22;5027222;28;20045;-66
2022/07/20 05:48:14;;;;;;;14.88;10.50;;;;;;;23.58;67.76;101177.28;5016602;28;20061;-65
2022/07/20 05:50:43;;;;;;;15.05;10.73;;;;;;;23.52;67.29;101156.34;5059554;28;20068;-66
2022/07/20 05:53:12;;;;;;;14.55;10.30;;;;;;;22.97;67.77;101185.53;5025489;28;20563;-64
2022/07/20 05:55:41;;;;;;;16.92;10.73;;;;;;;23.14;67.70;101201.75;5043271;28;20053;-64
2022/07/20 05:58:09;;;;;;;17.70;9.88;;;;;;;23.35;66.95;101208.44;5035975;28;20045;-65
2022/07/20 06:00:37;;;;;;;15.57;9.85;;;;;;;23.69;66.09;101195.06;5028141;28;20064;-65
2022/07/20 06:03:05;;;;;;;17.00;10.35;;;;;;;23.79;65.95;101196.31;5034748;28;20057;-65
2022/07/20 06:05:33;;;;;;;13.80;10.35;;;;;;;23.62;66.74;101197.81;5034084;28;20057;-64
2022/07/20 06:08:02;;;;;;;14.82;9.90;;;;;;;23.65;66.88;101179.34;5032838;28;20072;-65
2022/07/20 06:10:32;;;;;;;14.45;9.60;;;;;;;23.58;67.25;101184.91;5032992;28;20052;-64
2022/07/20 06:13:00;;;;;;;19.95;11.30;;;;;;;23.96;71.09;101199.25;5037393;28;20496;-64
2022/07/20 06:15:36;;;;;;;18.55;9.65;;;;;;;24.15;66.25;101199.00;5020552;28;20050;-65
2022/07/20 06:18:03;;;;;;;19.02;9.95;;;;;;;24.32;64.74;101197.50;5027313;28;20405;-65
2022/07/20 06:20:31;;;;;;;14.25;9.55;;;;;;;24.56;63.66;101204.44;5035878;28;20162;-62
2022/07/20 06:23:00;;;;;;;12.88;9.27;;;;;;;24.55;63.91;101228.19;5065284;28;20065;-64
2022/07/20 06:25:27;;;;;;;13.82;9.50;;;;;;;24.49;64.25;101250.28;5032591;28;20547;-65
2022/07/20 06:27:57;;;;;;;17.92;9.30;;;;;;;24.47;64.75;101259.13;5032881;28;20049;-65
2022/07/20 06:30:24;;;;;;;15.18;9.00;;;;;;;24.64;64.43;101279.31;5024349;28;20056;-64
2022/07/20 06:32:52;;;;;;;16.20;9.07;;;;;;;24.61;64.94;101292.19;5038415;28;20075;-62
2022/07/20 06:35:21;;;;;;;14.45;9.93;;;;;;;24.67;64.23;101287.00;5036013;28;20042;-61
2022/07/20 06:37:48;;;;;;;17.40;10.05;;;;;;;24.57;64.69;101276.47;5029089;28;20068;-62
2022/07/20 06:40:16;;;;;;;14.57;9.80;;;;;;;24.42;64.92;101276.41;5030304;28;20045;-61
2022/07/20 06:42:43;;;;;;;16.20;9.68;;;;;;;24.32;65.56;101291.22;5028886;28;20057;-61
2022/07/20 06:45:11;;;;;;;14.32;9.43;;;;;;;24.39;64.96;101288.44;5022300;28;20050;-60
2022/07/20 06:47:38;;;;;;;15.60;10.80;;;;;;;24.21;65.14;101283.91;5029705;28;20057;-62
2022/07/20 06:50:06;;;;;;;14.63;9.40;;;;;;;23.73;66.13;101277.47;5022477;28;20048;-61
2022/07/20 06:52:34;;;;;;;14.05;9.32;;;;;;;23.81;64.43;101248.22;5018120;28;20439;-61
2022/07/20 06:55:04;;;;;;;18.80;9.02;;;;;;;23.40;65.52;101233.38;5031198;28;20049;-62
2022/07/20 06:57:32;;;;;;;11.63;9.27;;;;;;;23.03;66.80;101248.63;5029929;28;20045;-60
2022/07/20 06:59:59;;;;;;;19.80;10.05;;;;;;;23.20;67.80;101250.81;5021351;28;20049;-59
2022/07/20 07:02:27;;;;;;;14.88;10.00;;;;;;;23.55;66.22;101242.78;5037510;28;20060;-60
2022/07/20 07:04:54;;;;;;;20.17;10.70;;;;;;;23.55;66.63;101239.13;5036698;28;20053;-60
2022/07/20 07:07:22;;;;;;;19.70;10.00;;;;;;;23.55;67.24;101239.13;5027823;28;20152;-59
2022/07/20 07:09:49;;;;;;;18.58;10.43;;;;;;;23.45;67.65;101228.59;5036501;28;20119;-60
2022/07/20 07:12:16;;;;;;;17.00;10.13;;;;;;;23.59;67.29;101231.53;5034779;28;20057;-61
2022/07/20 07:14:44;;;;;;;16.15;10.50;;;;;;;23.66;67.22;101246.47;5049419;28;20044;-61
2022/07/20 07:17:11;;;;;;;16.70;10.05;;;;;;;23.47;68.46;101268.41;5044306;28;20075;-59
2022/07/20 07:19:40;;;;;;;24.70;11.38;;;;;;;23.42;69.00;101273.16;5032367;28;20052;-62
2022/07/20 07:22:08;;;;;;;21.17;10.95;;;;;;;23.18;70.49;101268.09;5034207;28;20041;-59
2022/07/20 07:24:35;;;;;;;18.10;11.52;;;;;;;23.16;71.23;101249.97;5042562;28;20049;-57
2022/07/20 07:27:03;;;;;;;14.80;9.68;;;;;;;22.87;72.00;101225.56;5034484;28;20049;-60
2022/07/20 07:29:30;;;;;;;19.13;11.07;;;;;;;23.05;71.37;101237.78;5029262;28;20053;-60
2022/07/20 07:32:06;;;;;;;17.67;10.75;;;;;;;23.03;71.61;101257.06;5040626;28;20045;-60
2022/07/20 07:34:33;;;;;;;18.27;10.73;;;;;;;22.97;71.71;101261.41;5053605;28;20060;-59
2022/07/20 07:37:01;;;;;;;20.40;11.30;;;;;;;22.91;72.68;101257.34;5044457;28;20041;-59
2022/07/20 07:39:28;;;;;;;19.10;11.32;;;;;;;23.15;72.39;101270.84;5045335;28;20403;-60
2022/07/20 07:41:56;;;;;;;17.08;11.07;;;;;;;23.43;71.35;101285.25;5044815;28;20049;-60
2022/07/20 07:44:23;;;;;;;19.38;10.90;;;;;;;23.44;70.92;101295.28;5043919;28;20092;-60
2022/07/20 07:46:51;;;;;;;18.42;10.20;;;;;;;23.21;72.13;101311.47;5034181;28;20385;-64
2022/07/20 07:49:19;;;;;;;19.48;11.27;;;;;;;23.24;72.16;101317.13;5050801;28;20042;-66
2022/07/20 07:51:46;;;;;;;20.85;11.73;;;;;;;23.33;72.46;101323.28;5038081;28;20044;-64
2022/07/20 07:54:13;;;;;;;16.55;11.60;;;;;;;23.64;71.56;101319.16;5046835;28;20065;-64
2022/07/20 07:56:41;;;;;;;15.18;10.85;;;;;;;23.67;71.40;101318.41;5034705;28;21965;-64
2022/07/20 07:59:08;;;;;;;16.88;10.43;;;;;;;23.64;71.06;101319.16;5031436;28;20428;-64
2022/07/20 08:01:56;;;;;;;18.25;11.18;;;;;;;23.75;70.84;101322.91;5030022;28;20547;-65
2022/07/20 08:04:23;;;;;;;15.20;10.32;;;;;;;24.06;69.08;101313.94;5041294;28;20061;-64
2022/07/20 08:06:51;;;;;;;14.60;10.52;;;;;;;23.97;69.87;101296.56;5046724;28;20060;-64
2022/07/20 08:09:19;;;;;;;16.88;10.52;;;;;;;24.15;69.06;101305.16;5035410;28;20037;-63
2022/07/20 08:11:47;;;;;;;15.93;10.20;;;;;;;24.26;67.97;101309.69;5047265;28;20524;-63
2022/07/20 08:14:15;;;;;;;18.25;10.65;;;;;;;24.29;67.83;101306.09;5036772;28;20056;-63
2022/07/20 08:16:42;;;;;;;13.38;9.60;;;;;;;24.22;66.80;101308.84;5044022;28;20051;-64
2022/07/20 08:19:10;;;;;;;13.35;9.63;;;;;;;24.37;66.67;101316.19;5042817;28;20053;-63
2022/07/20 08:21:38;;;;;;;18.38;10.05;;;;;;;24.46;65.91;101324.31;5044693;28;20054;-65
2022/07/20 08:24:05;;;;;;;19.27;11.00;;;;;;;24.45;66.25;101323.50;5026520;28;20433;-63
2022/07/20 08:26:33;;;;;;;16.38;10.15;;;;;;;24.29;66.14;101324.97;5031787;28;20054;-66
2022/07/20 08:29:00;;;;;;;14.63;9.85;;;;;;;24.45;65.90;101323.50;5038979;28;20057;-66
2022/07/20 08:31:37;;;;;;;16.58;9.65;;;;;;;24.47;65.95;101306.19;5046930;28;20064;-66
2022/07/20 08:34:04;;;;;;;15.30;9.93;;;;;;;24.65;65.04;101318.38;5033037;28;20068;-66
2022/07/20 08:36:31;;;;;;;17.35;12.15;;;;;;;24.60;65.28;101327.19;5030474;28;20054;-66
2022/07/20 08:38:59;;;;;;;18.35;10.80;;;;;;;24.79;65.27;101329.78;5044659;28;20054;-67
2022/07/20 08:41:27;;;;;;;13.60;9.52;;;;;;;24.68;64.97;101314.78;5041330;28;20041;-66
2022/07/20 08:43:55;;;;;;;14.55;9.30;;;;;;;24.61;64.72;101320.38;5048451;28;20053;-66
2022/07/20 08:46:23;;;;;;;12.73;8.93;;;;;;;24.47;64.76;101323.91;5033417;28;20049;-65
2022/07/20 08:48:51;;;;;;;13.45;9.23;;;;;;;24.68;64.34;101330.88;5044630;28;20037;-63
2022/07/20 08:51:19;;;;;;;18.30;10.30;;;;;;;24.55;63.87;101336.00;5041722;28;20045;-63
2022/07/20 08:53:48;;;;;;;18.40;9.82;;;;;;;24.48;64.19;101333.16;5041010;28;20923;-63
2022/07/20 08:56:16;;;;;;;26.17;9.30;;;;;;;24.56;64.10;101334.84;5040989;28;20052;-66
2022/07/20 08:58:44;;;;;;;13.85;8.82;;;;;;;25.40;60.71;101326.00;5027567;28;20122;-62
2022/07/20 09:01:17;;;;;;;15.18;8.05;;;;;;;24.94;61.56;101325.00;5037834;28;20510;-63
2022/07/20 09:04:03;;;;;;;13.90;8.18;;;;;;;24.78;62.44;101324.50;5040321;28;20041;-64
2022/07/20 09:06:47;;;;;;;14.50;8.02;;;;;;;24.56;62.91;101322.75;5033434;28;20057;-64
2022/07/20 09:09:15;;;;;;;10.27;7.75;;;;;;;24.61;63.22;101330.81;5033662;28;20057;-63
2022/07/20 09:11:44;;;;;;;17.40;8.02;;;;;;;24.69;63.25;101324.88;5044386;28;20050;-63
2022/07/20 09:14:12;;;;;;;13.48;8.18;;;;;;;24.77;62.81;101318.09;5042430;28;20088;-64
2022/07/20 09:16:46;;;;;;;14.13;8.02;;;;;;;24.70;62.25;101305.94;5035841;28;20057;-63
2022/07/20 09:19:15;;;;;;;16.17;8.80;;;;;;;24.57;62.66;101308.25;5039379;28;20049;-64
2022/07/20 09:21:47;;;;;;;13.77;8.38;;;;;;;24.94;61.21;101308.88;5040025;28;20045;-62
2022/07/20 09:24:18;;;;;;;14.35;7.88;;;;;;;24.75;61.20;101309.22;5034466;28;20056;-63
2022/07/20 09:27:02;;;;;;;10.88;6.63;;;;;;;24.70;61.87;101315.22;5041516;28;20056;-62
2022/07/20 09:29:30;;;;;;;12.70;6.60;;;;;;;24.75;61.46;101317.66;5037311;28;20045;-62
2022/07/20 09:32:06;;;;;;;15.00;7.00;;;;;;;25.28;59.83;101320.69;5044091;28;20072;-62
2022/07/20 09:34:37;;;;;;;14.65;6.82;;;;;;;25.17;59.27;101326.31;5044393;28;20720;-62
2022/07/20 09:37:05;;;;;;;;;;;;;;;25.01;59.86;101319.38;5036419;28;20054;-64
2022/07/20 09:39:32;;;;;;;12.65;6.22;;;;;;;24.53;61.42;101315.88;5057377;28;19999;-66
2022/07/20 09:41:59;;;;;;;11.30;5.82;;;;;;;24.62;62.04;101332.47;5036357;28;20465;-66
2022/07/20 09:44:29;;;;;;;10.68;6.07;;;;;;;24.76;61.38;101329.75;5043192;28;20069;-66
2022/07/20 09:46:58;;;;;;;9.52;5.85;;;;;;;24.63;61.25;101336.88;5038051;28;20059;-66
2022/07/20 09:49:32;;;;;;;16.52;6.45;;;;;;;24.07;63.75;101334.47;5037699;28;20052;-65
2022/07/20 09:52:01;;;;;;;12.45;6.45;;;;;;;23.80;64.33;101350.69;5042746;28;20049;-63
2022/07/20 09:54:49;;;;;;;11.32;5.88;;;;;;;23.95;63.62;101354.44;5039509;28;20041;-63
2022/07/20 09:57:18;;;;;;;14.52;6.13;;;;;;;24.00;63.69;101362.56;5037477;28;20660;-62
2022/07/20 09:59:50;;;;;;;9.90;5.73;;;;;;;24.19;63.48;101353.88;5040586;28;20055;-64
2022/07/20 10:02:20;;;;;;;9.25;4.93;;;;;;;24.24;63.14;101354.31;5039614;28;20050;-63
2022/07/20 10:04:49;;;;;;;13.77;5.93;;;;;;;24.20;62.88;101361.13;5020072;28;20053;-63
2022/07/20 10:07:17;;;;;;;18.50;5.70;;;;;;;24.01;63.40;101364.16;5024019;28;20056;-65
2022/07/20 10:09:45;;;;;;;11.70;6.32;;;;;;;24.07;63.73;101366.25;5034316;28;20053;-65
2022/07/20 10:12:12;;;;;;;12.18;6.30;;;;;;;24.24;63.73;101350.69;5039541;28;20045;-66
2022/07/20 10:14:41;;;;;;;11.82;5.80;;;;;;;24.35;63.16;101335.50;5041449;28;20061;-66
2022/07/20 10:17:09;;;;;;;12.02;5.43;;;;;;;24.17;62.98;101340.19;5036794;28;20045;-66
2022/07/20 10:19:47;;;;;;;9.52;5.00;;;;;;;24.22;63.05;101351.09;5035220;28;20057;-65
2022/07/20 10:22:15;;;;;;;11.45;5.43;;;;;;;24.51;62.23;101358.53;5041931;28;20061;-66
2022/07/20 10:24:44;;;;;;;12.27;6.05;;;;;;;24.68;61.88;101353.41;5041034;28;20159;-66
2022/07/20 10:27:13;;;;;;;14.95;7.82;;;;;;;24.75;61.52;101356.28;5039303;28;20045;-66
2022/07/20 10:29:43;;;;;;;17.17;6.93;;;;;;;24.72;61.06;101355.09;5035997;28;20053;-66
2022/07/20 10:32:12;;;;;;;10.02;5.78;;;;;;;24.86;61.13;101348.72;5039614;28;20045;-66
2022/07/20 10:34:41;;;;;;;9.73;5.22;;;;;;;24.77;60.86;101339.81;5039049;28;20052;-66
2022/07/20 10:37:24;;;;;;;8.82;4.15;;;;;;;24.72;61.23;101343.00;5040579;28;20041;-66
2022/07/20 10:39:53;;;;;;;16.75;4.82;;;;;;;24.92;60.02;101345.13;5031956;28;20064;-66
2022/07/20 10:42:30;;;;;;;10.47;4.80;;;;;;;25.06;59.16;101344.38;5037492;28;20048;-66
2022/07/20 10:45:16;;;;;;;22.55;10.75;;;;;;;24.98;59.00;101349.19;5036099;28;20440;-70
2022/07/20 10:47:46;;;;;;;35.55;22.98;;;;;;;25.01;59.13;101361.66;5039610;28;20072;-66
2022/07/20 10:50:25;;;;;;;42.08;23.25;;;;;;;24.93;59.73;101349.53;5037445;28;20052;-66
2022/07/20 10:53:20;;;;;;;49.13;25.70;;;;;;;24.96;59.72;101351.59;5035745;28;20322;-66
2022/07/20 10:55:51;;;;;;;47.80;21.85;;;;;;;24.75;60.30;101353.47;5033608;28;20068;-65
2022/07/20 10:58:27;;;;;;;21.48;12.23;;;;;;;24.35;61.60;101352.41;5023320;28;20048;-65
2022/07/20 11:01:07;;;;;;;19.05;10.38;;;;;;;24.11;63.05;101369.88;5040649;28;20072;-65
2022/07/20 11:03:35;;;;;;;20.50;13.70;;;;;;;24.22;62.64;101369.97;5032895;28;20049;-68
2022/07/20 11:06:07;;;;;;;50.25;23.23;;;;;;;24.35;62.07;101374.94;5037310;28;20041;-67
2022/07/20 11:08:38;;;;;;;61.45;33.08;;;;;;;24.58;61.85;101377.50;5038954;28;20057;-68
2022/07/20 11:11:07;;;;;;;40.27;25.70;;;;;;;24.56;61.71;101368.63;5033234;28;20068;-68
2022/07/20 11:13:36;;;;;;;24.80;16.17;;;;;;;24.56;61.26;101367.81;5033965;28;20307;-67
2022/07/20 11:16:04;;;;;;;20.45;12.90;;;;;;;24.73;61.20;101361.50;5018372;28;20057;-67
2022/07/20 11:18:34;;;;;;;18.10;11.25;;;;;;;24.65;61.42;101362.66;5038734;28;20045;-67
2022/07/20 11:21:04;;;;;;;21.35;12.40;;;;;;;24.61;61.44;101368.25;5046169;28;20072;-67